Time;durP1;ratioP1;P1;durP2;ratioP2;P2;SDS_P1;SDS_P2;PMS_P1;PMS_P2;Temp;Humidity;BMP_temperature;BMP_pressure;BME280_temperature;BME280_humidity;BME280_pressure;Samples;Min_cycle;Max_cycle;Signal;HPM_P1;HPM_P2
2022/01/01 00:01:08;;;;;;;;;72.33;55.33;;;;;7.74;100.00;99828.38;6273995;20;3634718;-45
2022/01/01 00:03:37;;;;;;;;;61.00;49.00;;;;;7.66;100.00;99839.44;6309451;20;3633595;-46
2022/01/01 00:06:10;;;;;;;;;66.00;54.33;;;;;7.55;100.00;99836.38;6308389;20;2864945;-45
2022/01/01 00:08:39;;;;;;;;;63.00;49.00;;;;;7.75;100.00;99843.47;6310151;20;3629664;-44
2022/01/01 00:11:09;;;;;;;;;72.33;56.33;;;;;7.86;100.00;99837.59;6311263;20;3635749;-44
2022/01/01 00:13:52;;;;;;;;;75.00;57.67;;;;;8.01;100.00;99836.88;6312724;20;3629925;-45
2022/01/01 00:16:25;;;;;;;;;84.33;61.33;;;;;8.19;100.00;99847.59;6308915;20;3648245;-46
2022/01/01 00:18:54;;;;;;;;;80.00;60.67;;;;;8.21;100.00;99838.53;6313563;20;3652706;-45
2022/01/01 00:21:24;;;;;;;;;83.00;61.67;;;;;8.28;100.00;99839.13;6310960;20;3651460;-46
2022/01/01 00:23:54;;;;;;;;;80.33;62.00;;;;;8.03;100.00;99835.00;6275706;20;3629956;-44
2022/01/01 00:26:24;;;;;;;;;87.00;67.00;;;;;8.08;100.00;99842.75;6311738;20;3672096;-45
2022/01/01 00:28:54;;;;;;;;;87.67;70.67;;;;;7.98;100.00;99842.38;6278332;20;3685635;-46
2022/01/01 00:31:23;;;;;;;;;96.67;79.00;;;;;7.82;100.00;99831.56;6278303;20;3676318;-45
2022/01/01 00:33:53;;;;;;;;;98.00;81.33;;;;;7.97;100.00;99835.28;6278447;20;3665921;-44
2022/01/01 00:36:23;;;;;;;;;94.50;77.75;;;;;7.88;100.00;99831.25;6282783;20;4428316;-45
2022/01/01 00:38:53;;;;;;;;;93.33;73.00;;;;;7.89;100.00;99827.63;6311683;20;3671055;-45
2022/01/01 00:41:23;;;;;;;;;88.33;68.33;;;;;7.81;100.00;99843.16;6278916;20;3679386;-44
2022/01/01 00:43:52;;;;;;;;;83.75;65.00;;;;;7.80;100.00;99838.75;6282764;20;4403445;-45
2022/01/01 00:46:24;;;;;;;;;81.33;61.00;;;;;7.82;100.00;99827.97;6313036;20;3635616;-46
2022/01/01 00:48:53;;;;;;;;;79.67;60.33;;;;;7.70;100.00;99835.66;6278369;20;3639836;-47
2022/01/01 00:51:28;;;;;;;;;68.00;57.00;;;;;7.75;100.00;99834.59;6310023;20;3625381;-45
2022/01/01 00:53:58;;;;;;;;;72.33;57.33;;;;;7.62;100.00;99821.78;6316033;20;3626374;-44
2022/01/01 00:56:27;;;;;;;;;75.67;58.67;;;;;7.62;100.00;99821.78;6317233;20;3611767;-45
2022/01/01 00:58:57;;;;;;;;;74.67;57.00;;;;;7.74;100.00;99833.72;6315819;20;3645065;-45
2022/01/01 01:01:26;;;;;;;;;71.33;54.67;;;;;7.68;100.00;99832.19;6281423;20;3622126;-45
2022/01/01 01:03:56;;;;;;;;;78.33;59.33;;;;;7.62;100.00;99837.81;6314218;20;3626352;-45
2022/01/01 01:06:25;;;;;;;;;78.00;59.33;;;;;7.41;100.00;99841.50;6319961;20;3634601;-46
2022/01/01 01:08:57;;;;;;;;;73.33;58.00;;;;;7.18;100.00;99843.41;6285771;20;3631559;-46
2022/01/01 01:11:29;;;;;;;;;84.33;60.67;;;;;7.25;100.00;99838.66;6283964;20;3654498;-46
2022/01/01 01:14:00;;;;;;;;;76.33;57.00;;;;;7.30;100.00;99833.13;6315628;20;3650250;-46
2022/01/01 01:16:30;;;;;;;;;78.67;60.00;;;;;7.34;100.00;99846.25;6282682;20;3630489;-45
2022/01/01 01:18:59;;;;;;;;;79.33;60.00;;;;;7.20;100.00;99843.34;6316866;20;3615028;-45
2022/01/01 01:21:29;;;;;;;;;80.67;63.00;;;;;7.42;100.00;99848.56;6312952;20;3621364;-46
2022/01/01 01:23:59;;;;;;;;;85.67;63.00;;;;;7.54;100.00;99858.69;6283908;20;3649214;-46
2022/01/01 01:26:29;;;;;;;;;76.33;61.67;;;;;7.41;100.00;99857.53;6317193;20;3608692;-48
2022/01/01 01:29:01;;;;;;;;;82.00;64.00;;;;;7.41;100.00;99852.19;6285278;20;3622137;-46
2022/01/01 01:31:31;;;;;;;;;91.00;73.00;;;;;7.13;100.00;99848.09;6313721;20;3669042;-45
2022/01/01 01:34:02;;;;;;;;;96.50;80.75;;;;;7.08;100.00;99846.56;6284042;20;4439792;-45
2022/01/01 01:36:32;;;;;;;;;95.00;79.67;;;;;7.12;100.00;99830.34;6315313;20;3675290;-46
2022/01/01 01:39:02;;;;;;;;;95.00;80.25;;;;;6.95;100.00;99816.88;6286042;20;4433539;-48
2022/01/01 01:41:32;;;;;;;;;88.00;74.33;;;;;7.02;100.00;99823.69;6313369;20;3657510;-47
2022/01/01 01:44:21;;;;;;;;;90.00;78.33;;;;;7.00;100.00;99833.53;6285461;20;3653328;-46
2022/01/01 01:46:52;;;;;;;;;95.00;78.33;;;;;6.88;100.00;99821.63;6279723;20;3676282;-47
2022/01/01 01:49:22;;;;;;;;;95.50;80.00;;;;;7.04;100.00;99832.50;6286666;20;4439828;-46
2022/01/01 01:51:53;;;;;;;;;93.50;79.75;;;;;6.97;100.00;99831.88;6318496;20;4425340;-46
2022/01/01 01:54:21;;;;;;;;;95.50;79.00;;;;;6.78;100.00;99831.84;6312562;20;1944118;-46
2022/01/01 01:56:52;;;;;;;;;93.33;78.00;;;;;6.91;100.00;99834.84;6282119;20;3674165;-45
2022/01/01 01:59:22;;;;;;;;;95.00;78.00;;;;;6.85;100.00;99821.78;6276015;20;1934648;-45
2022/01/01 02:01:53;;;;;;;;;93.33;77.33;;;;;6.95;100.00;99824.88;6281692;20;3667911;-46
2022/01/01 02:04:23;;;;;;;;;91.67;76.67;;;;;7.03;100.00;99828.97;6276825;20;3675366;-45
2022/01/01 02:06:53;;;;;;;;;90.00;73.33;;;;;6.98;100.00;99832.78;6283399;20;3659593;-45
2022/01/01 02:09:23;;;;;;;;;92.33;77.33;;;;;6.98;100.00;99833.63;6281441;20;3667954;-44
2022/01/01 02:11:54;;;;;;;;;95.33;76.67;;;;;6.95;100.00;99844.44;6281108;20;3664822;-45
2022/01/01 02:17:19;;;;;;;;;94.33;73.33;;;;;6.96;100.00;99853.31;6278524;20;3679419;-46
2022/01/01 02:20:03;;;;;;;;;91.00;75.75;;;;;6.95;100.00;99843.56;6284502;20;4417940;-44
2022/01/01 02:22:46;;;;;;;;;93.00;78.67;;;;;6.80;100.00;99851.31;6314680;20;3677381;-44
2022/01/01 02:25:20;;;;;;;;;93.00;78.67;;;;;6.87;100.00;99853.72;6282034;20;3657538;-46
2022/01/01 02:27:50;;;;;;;;;95.33;83.67;;;;;6.95;100.00;99849.78;6283296;20;3655493;-49
2022/01/01 02:30:20;;;;;;;;;91.67;71.67;;;;;6.92;100.00;99859.72;6284841;20;3675283;-46
2022/01/01 02:32:50;;;;;;;;;95.75;80.50;;;;;6.81;100.00;99845.03;6283911;20;4433587;-44
2022/01/01 02:35:20;;;;;;;;;94.00;80.00;;;;;6.81;100.00;99844.19;6314801;20;3664832;-45
2022/01/01 02:37:49;;;;;;;;;92.00;75.25;;;;;6.80;100.00;99845.13;6287195;20;4423270;-45
2022/01/01 02:40:19;;;;;;;;;90.00;79.00;;;;;6.85;100.00;99831.59;6313276;20;3657550;-45
2022/01/01 02:42:51;;;;;;;;;93.25;78.75;;;;;6.67;100.00;99844.78;6286106;20;4423263;-45
2022/01/01 02:45:21;;;;;;;;;83.50;64.75;;;;;6.96;100.00;99843.50;6316369;20;3636712;-46
2022/01/01 02:47:51;;;;;;;;;91.00;73.33;;;;;6.77;100.00;99850.59;6313700;20;3676291;-47
2022/01/01 02:50:22;;;;;;;;;90.33;67.33;;;;;6.76;100.00;99844.38;6281012;20;3665842;-44
2022/01/01 02:52:52;;;;;;;;;89.33;72.33;;;;;6.73;100.00;99840.97;6282404;20;3668963;-45
2022/01/01 02:55:22;;;;;;;;;93.25;74.25;;;;;6.75;100.00;99845.31;6286466;20;4444149;-44
2022/01/01 02:57:51;;;;;;;;;95.00;79.25;;;;;6.82;100.00;99849.47;6318191;20;4438794;-46
2022/01/01 03:00:21;;;;;;;;;91.00;69.00;;;;;6.84;100.00;99851.19;6314083;20;3687962;-45
2022/01/01 03:02:51;;;;;;;;;93.75;73.00;;;;;6.82;100.00;99848.59;6283217;20;4450266;-45
2022/01/01 03:05:21;;;;;;;;;87.00;69.67;;;;;6.84;100.00;99846.69;6313237;20;3658696;-45
2022/01/01 03:07:50;;;;;;;;;79.33;60.33;;;;;7.38;100.00;99842.50;6283862;20;3642963;-44
2022/01/01 03:10:20;;;;;;;;;63.00;48.33;;;;;8.04;100.00;99842.06;6313874;20;2869022;-45
2022/01/01 03:12:49;;;;;;;;;70.00;52.67;;;;;8.62;100.00;99830.28;6312644;20;3641943;-45
2022/01/01 03:15:18;;;;;;;;;51.33;42.00;;;;;9.41;100.00;99827.88;6314958;20;3589834;-45
2022/01/01 03:17:48;;;;;;;;;37.67;35.33;;;;;9.65;100.00;99836.38;6280447;20;3620053;-48
2022/01/01 03:20:16;;;;;;;;;32.33;32.00;;;;;9.79;100.00;99843.66;6315432;20;3605438;-44
2022/01/01 03:22:45;;;;;;;;;35.50;34.00;;;;;9.87;100.00;99846.81;6282398;20;2856587;-48
2022/01/01 03:25:14;;;;;;;;;35.00;33.67;;;;;9.76;100.00;99833.09;6284483;20;3590867;-48
2022/01/01 03:27:43;;;;;;;;;33.00;27.33;;;;;9.96;100.00;99844.56;6283314;20;2851368;-44
2022/01/01 03:30:12;;;;;;;;;33.00;32.00;;;;;9.89;100.00;99854.75;6316051;20;3600250;-46
2022/01/01 03:32:40;;;;;;;;;31.50;27.50;;;;;9.89;100.00;99849.38;6282434;20;2850797;-45
2022/01/01 03:35:09;;;;;;;;;28.33;28.33;;;;;9.97;100.00;99851.63;6284679;20;3587808;-45
2022/01/01 03:37:39;;;;;;;;;31.00;28.67;;;;;10.01;100.00;99839.78;6280341;20;2853405;-45
2022/01/01 03:40:09;;;;;;;;;31.33;24.67;;;;;10.00;100.00;99846.09;6314169;20;3596107;-46
2022/01/01 03:42:38;;;;;;;;;24.00;20.50;;;;;10.08;100.00;99850.09;6280733;20;2836756;-45
2022/01/01 03:45:08;;;;;;;;;24.00;24.00;;;;;10.16;100.00;99857.66;6279829;20;2844007;-46
2022/01/01 03:47:36;;;;;;;;;23.00;21.50;;;;;10.12;100.00;99861.50;6283054;20;2842009;-44
2022/01/01 03:50:07;;;;;;;;;25.33;24.00;;;;;10.13;100.00;99860.53;6280254;20;2854470;-45
2022/01/01 03:52:40;;;;;;;;;23.50;20.00;;;;;10.15;100.00;99866.69;6311756;20;2839877;-45
2022/01/01 03:55:13;;;;;;;;;34.00;28.67;;;;;10.06;100.00;99856.50;6280087;20;2855520;-45
2022/01/01 03:57:42;;;;;;;;;24.00;23.00;;;;;10.36;100.00;99880.72;6313188;20;2846104;-45
2022/01/01 04:00:12;;;;;;;;;21.00;18.50;;;;;10.51;100.00;99873.63;6279842;20;2496121;-44
2022/01/01 04:02:42;;;;;;;;;25.50;24.50;;;;;10.37;100.00;99877.06;6282186;20;2852413;-45
2022/01/01 04:05:11;;;;;;;;;27.50;22.00;;;;;10.36;100.00;99883.41;6285102;20;2489860;-47
2022/01/01 04:07:39;;;;;;;;;27.00;20.00;;;;;10.41;100.00;99881.31;6312578;20;2847184;-46
2022/01/01 04:10:08;;;;;;;;;22.00;20.00;;;;;10.41;100.00;99880.47;6279409;20;2496189;-46
2022/01/01 04:12:36;;;;;;;;;22.50;18.50;;;;;10.32;100.00;99874.69;6279767;20;2498177;-45
2022/01/01 04:15:06;;;;;;;;;28.00;23.50;;;;;10.10;100.00;99882.19;6282627;20;2838781;-45
2022/01/01 04:17:37;;;;;;;;;21.00;21.00;;;;;10.19;100.00;99883.47;6277272;20;2500284;-45
2022/01/01 04:20:07;;;;;;;;;23.50;18.00;;;;;10.11;100.00;99897.34;6281033;20;2485654;-50
2022/01/01 04:22:36;;;;;;;;;25.00;24.00;;;;;10.10;100.00;99898.28;6280192;20;2851283;-46
2022/01/01 04:25:05;;;;;;;;;27.00;25.00;;;;;10.03;100.00;99904.94;6279626;20;2821142;-46
2022/01/01 04:27:34;;;;;;;;;32.50;25.00;;;;;9.88;100.00;99899.47;6279150;20;2852419;-47
2022/01/01 04:30:03;;;;;;;;;31.67;27.00;;;;;9.50;100.00;99890.84;6280992;20;3589829;-45
2022/01/01 04:32:32;;;;;;;;;31.00;27.00;;;;;9.57;100.00;99900.28;6281155;20;3590968;-47
2022/01/01 04:35:01;;;;;;;;;33.67;26.67;;;;;9.67;100.00;99900.66;6279957;20;2849702;-45
2022/01/01 04:37:30;;;;;;;;;35.67;28.00;;;;;9.67;100.00;99887.25;6313448;20;3612937;-45
2022/01/01 04:40:00;;;;;;;;;26.67;26.00;;;;;9.56;100.00;99890.53;6280038;20;2845320;-45
2022/01/01 04:42:30;;;;;;;;;24.50;22.50;;;;;9.50;100.00;99890.84;6309469;20;2846144;-46
2022/01/01 04:44:59;;;;;;;;;16.33;16.33;;;;;9.98;100.00;99883.75;6279256;20;3544141;-46
2022/01/01 04:47:28;;;;;;;;;24.00;17.00;;;;;10.08;100.00;99886.75;6283677;20;2487916;-48
2022/01/01 04:49:56;;;;;;;;;18.00;18.00;;;;;10.40;100.00;99894.81;6281688;20;2825262;-46
2022/01/01 04:52:25;;;;;;;;;22.67;16.00;;;;;10.28;100.00;99899.94;6283118;20;2835694;-46
2022/01/01 04:54:53;;;;;;;;;20.33;15.67;;;;;10.37;100.00;99903.06;6312850;20;3555565;-45
2022/01/01 04:57:26;;;;;;;;;16.00;14.00;;;;;10.53;100.00;99901.22;6282585;20;2813783;-44
2022/01/01 04:59:54;;;;;;;;;18.00;13.00;;;;;10.62;100.00;99898.00;6281172;20;2819039;-44
2022/01/01 05:02:23;;;;;;;;;19.67;16.00;;;;;10.51;100.00;99898.63;6281101;20;3562790;-45
2022/01/01 05:04:53;;;;;;;;;16.00;15.50;;;;;10.51;100.00;99916.56;6317947;20;2814842;-48
2022/01/01 05:07:23;;;;;;;;;17.33;14.67;;;;;10.62;100.00;99907.88;6279989;20;3547129;-44
2022/01/01 05:09:52;;;;;;;;;21.33;13.00;;;;;10.63;100.00;99904.25;6312307;20;3569050;-45
2022/01/01 05:12:20;;;;;;;;;14.67;13.00;;;;;10.72;99.92;99909.94;6312093;20;3523254;-45
2022/01/01 05:14:49;;;;;;;;;17.67;14.33;;;;;10.68;100.00;99919.13;6309245;20;3544053;-44
2022/01/01 05:17:18;;;;;;;;;13.00;12.67;;;;;10.67;100.00;99922.78;6276309;20;2789948;-46
2022/01/01 05:19:46;;;;;;;;;12.50;11.00;;;;;10.56;100.00;99930.59;6314751;20;2791892;-45
2022/01/01 05:22:14;;;;;;;;;18.00;14.00;;;;;10.63;100.00;99923.88;6284212;20;2816906;-45
2022/01/01 05:24:41;;;;;;;;;12.50;12.00;;;;;10.52;100.00;99937.94;6283035;20;2788775;-46
2022/01/01 05:27:09;;;;;;;;;12.00;12.00;;;;;10.48;100.00;99933.72;6280521;20;2798199;-44
2022/01/01 05:29:38;;;;;;;;;11.00;10.00;;;;;10.45;100.00;99938.38;6280916;20;3508568;-44
2022/01/01 05:32:06;;;;;;;;;13.50;12.50;;;;;10.55;100.00;99939.59;6313053;20;2790905;-45
2022/01/01 05:34:35;;;;;;;;;17.00;16.00;;;;;10.48;100.00;99939.09;6281641;20;3573171;-44
2022/01/01 05:37:05;;;;;;;;;12.33;11.67;;;;;10.39;100.00;99936.06;6278260;20;3536694;-45
2022/01/01 05:39:34;;;;;;;;;13.00;13.00;;;;;10.39;100.00;99933.38;6316408;20;2801305;-45
2022/01/01 05:42:03;;;;;;;;;13.00;13.00;;;;;10.39;100.00;99938.72;6314276;20;3408580;-46
2022/01/01 05:44:33;;;;;;;;;14.40;11.80;;;;;10.58;100.00;99944.78;6340610;20;2794049;-44
2022/01/01 05:47:01;;;;;;;;;17.50;16.00;;;;;10.41;100.00;99942.19;6285965;20;2826314;-44
2022/01/01 05:49:28;;;;;;;;;14.00;13.00;;;;;10.39;100.00;99942.28;6288441;20;2811727;-48
2022/01/01 05:51:56;;;;;;;;;12.00;11.00;;;;;10.39;100.00;99950.34;6290925;20;2789899;-45
2022/01/01 05:54:25;;;;;;;;;15.00;13.33;;;;;10.47;100.00;99947.22;6283878;20;2801306;-44
2022/01/01 05:56:53;;;;;;;;;16.33;12.67;;;;;10.46;100.00;99956.22;6314155;20;3531460;-44
2022/01/01 05:59:22;;;;;;;;;18.33;15.33;;;;;10.22;100.00;99953.94;6316011;20;3543201;-44
2022/01/01 06:01:51;;;;;;;;;15.00;15.00;;;;;10.45;100.00;99954.47;6284108;20;3552370;-45
2022/01/01 06:04:19;;;;;;;;;20.00;13.00;;;;;10.50;100.00;99957.78;6317456;20;2816940;-45
2022/01/01 06:06:47;;;;;;;;;13.00;11.00;;;;;10.45;100.00;99965.22;6285634;20;2788810;-47
2022/01/01 06:09:15;;;;;;;;;13.00;11.00;;;;;10.41;100.00;99958.31;6283176;20;2791993;-45
2022/01/01 06:11:43;;;;;;;;;16.50;13.00;;;;;10.39;100.00;99962.91;6287543;20;2815988;-46
2022/01/01 06:14:12;;;;;;;;;20.67;17.00;;;;;10.36;100.00;99960.38;6284886;20;3566916;-46
2022/01/01 06:16:39;;;;;;;;;23.00;18.00;;;;;10.42;100.00;99970.75;6278156;20;2492152;-44
2022/01/01 06:19:08;;;;;;;;;12.67;12.00;;;;;10.23;100.00;99977.13;6283953;20;2799225;-46
2022/01/01 06:21:37;;;;;;;;;14.00;12.00;;;;;10.53;100.00;99984.44;6314727;20;3532531;-46
2022/01/01 06:24:06;;;;;;;;;17.00;15.00;;;;;10.29;100.00;99984.91;6318498;20;2814848;-44
2022/01/01 06:26:40;;;;;;;;;26.00;19.00;;;;;10.22;100.00;99986.16;6282979;20;2835677;-47
2022/01/01 06:29:10;;;;;;;;;12.40;10.20;;;;;10.26;100.00;99990.38;6310955;20;2789873;-44
2022/01/01 06:31:38;;;;;;;;;18.00;13.00;;;;;10.22;100.00;99986.16;6284551;20;3523172;-44
2022/01/01 06:34:08;;;;;;;;;14.00;11.00;;;;;10.27;100.00;99999.31;6313683;20;2792038;-45
2022/01/01 06:36:36;;;;;;;;;24.00;18.50;;;;;10.41;100.00;100009.31;6285222;20;2491994;-45
2022/01/01 06:39:05;;;;;;;;;21.00;16.00;;;;;10.17;100.00;100012.34;6283816;20;3558678;-44
2022/01/01 06:41:32;;;;;;;;;12.00;10.50;;;;;10.28;100.00;100020.72;6285930;20;2790911;-45
2022/01/01 06:44:06;;;;;;;;;12.50;10.50;;;;;10.54;100.00;100027.31;6289913;20;2788797;-45
2022/01/01 06:46:34;;;;;;;;;8.50;8.00;;;;;10.48;100.00;100026.81;6283693;20;2755646;-44
2022/01/01 06:49:03;;;;;;;;;15.00;11.00;;;;;10.45;100.00;100025.16;6285025;20;2784630;-45
2022/01/01 06:51:32;;;;;;;;;15.50;11.50;;;;;10.43;100.00;100027.06;6282792;20;2796124;-45
2022/01/01 06:54:00;;;;;;;;;13.00;10.67;;;;;10.40;100.00;100032.59;6284796;20;3517964;-47
2022/01/01 06:56:29;;;;;;;;;17.33;15.67;;;;;10.39;100.00;100027.31;6313705;20;3558742;-46
2022/01/01 06:58:57;;;;;;;;;15.50;15.00;;;;;10.36;100.00;100035.53;6321994;20;2808588;-47
2022/01/01 07:01:25;;;;;;;;;15.33;13.00;;;;;10.46;100.00;100036.75;6282227;20;2815074;-45
2022/01/01 07:03:53;;;;;;;;;17.50;16.50;;;;;10.50;100.00;100033.81;6316515;20;2815596;-45
2022/01/01 07:06:22;;;;;;;;;17.50;17.50;;;;;10.57;100.00;100038.84;6282775;20;2496103;-47
2022/01/01 07:08:51;;;;;;;;;12.67;12.33;;;;;10.49;100.00;100036.59;6282538;20;3530504;-46
2022/01/01 07:11:19;;;;;;;;;19.67;17.67;;;;;10.54;100.00;100037.19;6315276;20;2826317;-45
2022/01/01 07:13:48;;;;;;;;;18.00;15.00;;;;;10.63;100.00;100033.97;6314269;20;2816959;-46
2022/01/01 07:16:17;;;;;;;;;13.00;12.00;;;;;10.68;100.00;100031.91;6281131;20;2806547;-45
2022/01/01 07:18:47;;;;;;;;;15.00;12.67;;;;;10.69;100.00;100036.34;6283463;20;2799292;-46
2022/01/01 07:21:14;;;;;;;;;12.00;10.00;;;;;10.75;100.00;100032.44;6311429;20;2787772;-46
2022/01/01 07:23:42;;;;;;;;;13.00;8.00;;;;;10.83;99.63;100038.25;6282048;20;2753504;-46
2022/01/01 07:26:10;;;;;;;;;11.00;10.50;;;;;11.13;98.38;100043.66;6283547;20;2784805;-44
2022/01/01 07:28:40;;;;;;;;;10.00;10.00;;;;;11.16;97.83;100042.63;6306819;20;2789875;-47
2022/01/01 07:31:08;;;;;;;;;9.00;7.00;;;;;11.35;97.23;100042.41;6288202;20;2734644;-44
2022/01/01 07:33:35;;;;;;;;;11.00;9.00;;;;;11.17;98.00;100045.22;6286402;20;2773163;-44
2022/01/01 07:36:03;;;;;;;;;12.00;7.00;;;;;11.36;97.57;100054.91;6280005;20;2765033;-44
2022/01/01 07:38:32;;;;;;;;;11.00;10.00;;;;;11.29;97.51;100049.00;6283855;20;2788001;-44
2022/01/01 07:41:00;;;;;;;;;10.00;10.00;;;;;11.55;96.95;100055.53;6320948;20;2784654;-45
2022/01/01 07:43:29;;;;;;;;;8.50;7.00;;;;;11.68;95.85;100052.97;6286789;20;2756531;-45
2022/01/01 07:45:57;;;;;;;;;7.50;7.00;;;;;11.78;95.19;100040.69;6285792;20;2735827;-44
2022/01/01 07:48:25;;;;;;;;;6.00;5.00;;;;;12.02;93.58;100049.13;6286368;20;2750257;-44
2022/01/01 07:50:53;;;;;;;;;7.00;7.00;;;;;12.14;92.53;100052.00;6284606;20;2745081;-45
2022/01/01 07:53:20;;;;;;;;;12.50;8.00;;;;;11.98;93.34;100063.75;6285184;20;2766955;-43
2022/01/01 07:55:49;;;;;;;;;16.00;16.00;;;;;11.99;93.63;100076.22;6283635;20;3561792;-45
2022/01/01 07:58:18;;;;;;;;;17.00;15.00;;;;;12.12;93.52;100086.25;6279373;20;3546054;-44
2022/01/01 08:00:46;;;;;;;;;25.33;21.67;;;;;11.84;94.15;100088.75;6313345;20;3575211;-46
2022/01/01 08:03:15;;;;;;;;;13.33;13.00;;;;;11.54;95.66;100086.06;6280687;20;3546174;-43
2022/01/01 08:05:44;;;;;;;;;17.00;14.00;;;;;11.61;95.67;100097.31;6314312;20;3537761;-43
2022/01/01 08:08:11;;;;;;;;;10.50;9.00;;;;;11.44;96.33;100090.25;6279776;20;2776747;-45
2022/01/01 08:10:40;;;;;;;;;12.67;12.67;;;;;11.59;96.17;100088.50;6282735;20;2801329;-44
2022/01/01 08:13:10;;;;;;;;;10.60;10.60;;;;;11.70;95.13;100088.72;6337689;20;2779455;-44
2022/01/01 08:15:38;;;;;;;;;8.00;7.50;;;;;11.91;94.39;100080.34;6281565;20;2755452;-46
2022/01/01 08:18:06;;;;;;;;;13.00;13.00;;;;;11.98;93.94;100082.56;6286770;20;2807562;-45
2022/01/01 08:20:38;;;;;;;;;5.50;5.50;;;;;11.80;94.27;100081.84;6284253;20;2740903;-44
2022/01/01 08:23:12;;;;;;;;;13.60;11.80;;;;;11.96;94.14;100081.81;6305391;20;2791920;-44
2022/01/01 08:25:41;;;;;;;;;16.40;12.20;;;;;12.11;93.36;100079.13;6306364;20;2789858;-44
2022/01/01 08:28:09;;;;;;;;;9.00;8.00;;;;;12.11;92.72;100079.13;6282818;20;2758630;-44
2022/01/01 08:30:37;;;;;;;;;9.00;7.00;;;;;11.84;93.91;100088.75;6284632;20;2731720;-46
2022/01/01 08:33:05;;;;;;;;;12.00;6.00;;;;;11.84;93.77;100094.13;6283088;20;2756507;-44
2022/01/01 08:35:36;;;;;;;;;6.20;5.40;;;;;11.84;93.77;100095.94;6304344;20;2747147;-48
2022/01/01 08:38:05;;;;;;;;;14.75;9.50;;;;;12.05;93.87;100096.50;6336575;20;2799231;-44
2022/01/01 08:40:38;;;;;;;;;11.29;9.29;;;;;12.20;92.62;100103.66;6354495;20;1796165;-46
2022/01/01 08:43:07;;;;;;;;;11.00;11.00;;;;;12.31;92.60;100108.38;6316503;20;2794146;-44
2022/01/01 08:45:37;;;;;;;;;11.00;11.00;;;;;12.39;91.61;100113.28;6281262;20;2785840;-44
2022/01/01 08:48:08;;;;;;;;;19.00;16.00;;;;;12.69;91.27;100113.16;6281055;20;3558597;-43
2022/01/01 08:50:37;;;;;;;;;11.00;8.00;;;;;12.56;91.32;100123.88;6339348;20;2780861;-44
2022/01/01 08:53:05;;;;;;;;;13.50;11.00;;;;;12.71;90.32;100122.03;6289423;20;2787772;-44
2022/01/01 08:55:34;;;;;;;;;12.00;11.67;;;;;12.69;90.82;100115.84;6284705;20;2789040;-44
2022/01/01 08:58:05;;;;;;;;;8.14;7.00;;;;;12.61;91.19;100123.56;6360708;20;3441887;-43
2022/01/01 09:00:54;;;;;;;;;8.00;6.00;;;;;12.80;90.38;100124.16;6341011;20;2738815;-43
2022/01/01 09:03:22;;;;;;;;;8.00;8.00;;;;;13.16;89.22;100125.41;6315690;20;2741949;-43
2022/01/01 09:05:50;;;;;;;;;5.00;5.00;;;;;13.39;87.36;100124.81;6288706;20;2747152;-44
2022/01/01 09:08:38;;;;;;;;;6.50;6.00;;;;;13.53;87.53;100128.41;6287295;20;2731547;-44
2022/01/01 09:11:08;;;;;;;;;7.00;5.00;;;;;13.37;87.38;100134.81;6284778;20;2742956;-44
2022/01/01 09:13:41;;;;;;;;;31.67;29.33;;;;;13.68;85.98;100148.97;6287850;20;3600354;-43
2022/01/01 09:16:18;;;;;;;;;9.00;8.50;;;;;13.48;86.51;100144.03;6289894;20;2747176;-44
2022/01/01 09:18:48;;;;;;;;;8.50;8.00;;;;;13.36;86.59;100151.97;6294334;20;2754440;-45
2022/01/01 09:21:17;;;;;;;;;9.00;6.50;;;;;13.26;87.03;100142.75;6293260;20;2748251;-43
2022/01/01 09:23:47;;;;;;;;;8.60;7.40;;;;;13.29;87.27;100150.63;6317543;20;2738827;-43
2022/01/01 09:26:16;;;;;;;;;8.00;6.67;;;;;13.05;88.51;100157.59;6346110;20;1910691;-43
2022/01/01 09:28:46;;;;;;;;;6.40;6.40;;;;;13.26;88.22;100160.75;6312006;20;2740901;-44
2022/01/01 09:31:13;;;;;;;;;5.00;5.00;;;;;13.32;87.23;100155.88;6322091;20;2748314;-43
2022/01/01 09:33:41;;;;;;;;;7.00;7.00;;;;;13.23;88.10;100158.25;6292955;20;2729498;-44
2022/01/01 09:36:12;;;;;;;;;12.50;9.00;;;;;13.37;87.15;100152.84;6297723;20;2771116;-44
2022/01/01 09:38:42;;;;;;;;;11.40;9.20;;;;;13.52;87.06;100149.13;6316810;20;2779463;-43
2022/01/01 09:41:12;;;;;;;;;11.50;9.00;;;;;13.60;86.13;100154.03;6288289;20;2765918;-47
2022/01/01 09:43:41;;;;;;;;;6.00;6.00;;;;;13.46;86.08;100146.84;6294362;20;2738866;-45
2022/01/01 09:46:14;;;;;;;;;6.00;4.00;;;;;13.33;87.18;100152.19;6292309;20;2737895;-43
2022/01/01 09:48:54;;;;;;;;;10.00;9.00;;;;;13.24;87.79;100144.66;6289407;20;2758578;-44
2022/01/01 09:51:22;;;;;;;;;7.50;7.50;;;;;13.29;87.68;100147.94;6290756;20;2741945;-43
2022/01/01 09:53:50;;;;;;;;;11.67;10.00;;;;;13.34;87.24;100150.34;6289022;20;2779441;-43
2022/01/01 09:56:20;;;;;;;;;9.60;9.60;;;;;13.36;87.01;100156.50;6346486;20;2796161;-42
2022/01/01 09:58:48;;;;;;;;;7.50;7.50;;;;;13.53;85.87;100156.28;6293577;20;2734618;-41
2022/01/01 10:01:19;;;;;;;;;6.57;5.43;;;;;13.69;85.54;100158.81;6329095;20;3461657;-44
2022/01/01 10:03:52;;;;;;;;;12.67;12.67;;;;;13.79;85.05;100154.50;6320993;20;3524794;-43
2022/01/01 10:06:23;;;;;;;;;11.00;11.00;;;;;13.88;85.67;100152.19;6323444;20;2794117;-43
2022/01/01 10:09:03;;;;;;;;;7.00;7.00;;;;;14.01;84.37;100153.06;6312984;20;2742000;-43
2022/01/01 10:11:33;;;;;;;;;12.00;8.60;;;;;14.03;83.77;100148.41;6344981;20;2759162;-42
2022/01/01 10:14:07;;;;;;;;;17.00;15.67;;;;;13.88;84.02;100153.03;6287191;20;3558612;-42
2022/01/01 10:16:44;;;;;;;;;9.33;9.00;;;;;14.08;84.00;100157.06;6288114;20;2769091;-42
2022/01/01 10:19:13;;;;;;;;;29.33;29.33;;;;;14.24;83.47;100155.06;6320697;20;3603398;-42
2022/01/01 10:21:42;;;;;;;;;7.00;6.00;;;;;14.24;83.19;100157.75;6291082;20;2743124;-45
2022/01/01 10:24:14;;;;;;;;;5.20;5.20;;;;;13.91;83.29;100155.53;6315711;20;2735793;-43
2022/01/01 10:29:32;;;;;;;;;6.00;6.00;;;;;13.70;83.83;100160.53;6315647;20;2741915;-45
2022/01/01 10:32:12;;;;;;;;;7.60;7.60;;;;;13.88;83.06;100160.28;6345623;20;2741946;-43
2022/01/01 10:34:47;;;;;;;;;6.20;6.20;;;;;13.78;83.16;100163.59;6345036;20;2746218;-43
2022/01/01 10:37:34;;;;;;;;;7.00;7.00;;;;;13.98;83.54;100153.25;6321228;20;2738838;-41
2022/01/01 10:40:10;;;;;;;;;20.00;13.33;;;;;14.30;81.54;100159.16;6287828;20;3543972;-44
2022/01/01 10:42:50;;;;;;;;;4.50;4.50;;;;;14.09;81.87;100153.41;6289584;20;2739948;-45
2022/01/01 10:45:45;;;;;;;;;6.00;6.00;;;;;14.50;81.56;100160.47;6315550;20;2738813;-44
2022/01/01 10:48:42;;;;;;;;;7.00;6.00;;;;;14.54;82.01;100151.22;6319180;20;2743038;-43
2022/01/01 10:51:12;;;;;;;;;5.50;4.00;;;;;14.71;80.06;100148.16;6290889;20;2748327;-43
2022/01/01 10:53:40;;;;;;;;;7.00;5.50;;;;;14.78;80.11;100148.59;6293418;20;2745093;-42
2022/01/01 10:56:22;;;;;;;;;5.60;5.60;;;;;14.40;81.05;100154.84;6312624;20;2745073;-42
2022/01/01 10:59:01;;;;;;;;;6.00;6.00;;;;;14.43;80.78;100159.19;6343454;20;2738815;-41
2022/01/01 11:01:44;;;;;;;;;7.40;6.20;;;;;14.34;82.51;100159.81;6340528;20;2743997;-43
2022/01/01 11:04:20;;;;;;;;;5.00;5.00;;;;;15.04;79.00;100154.81;6302926;20;2736796;-46
2022/01/01 11:06:50;;;;;;;;;4.00;4.00;;;;;14.64;78.01;100157.69;6295865;20;2748186;-41
2022/01/01 11:09:19;;;;;;;;;9.33;7.00;;;;;14.33;79.64;100167.06;6284953;20;2742949;-44
2022/01/01 11:11:50;;;;;;;;;8.60;7.60;;;;;14.40;78.95;100170.19;6342272;20;2745039;-47
2022/01/01 11:14:19;;;;;;;;;7.00;5.00;;;;;14.50;78.01;100158.63;6319003;20;2741926;-46
2022/01/01 11:16:47;;;;;;;;;9.00;5.00;;;;;14.70;77.30;100157.25;6289313;20;2748197;-46
2022/01/01 11:19:16;;;;;;;;;12.00;9.00;;;;;14.71;77.95;100155.41;6283860;20;2767959;-44